Terminal Aerodrome Forecast
Issued by NWS

Home | Current Version | Previous Version | Graphics & Text | Print | Product List | Glossary On
Versions: 1 2 3 4 5 6 7 8 9 10 11 12 13 14 15 16 17
000
FTUS43 KMPX 021546 AAA
TAFRNH
TAF AMD
KRNH 021546Z 0216/0312 27009KT P6SM BKN024
     FM021700 31014G23KT P6SM FEW030 SCT090
     FM030200 28006KT P6SM SKC=

USA.gov is the U.S. government's official web portal to all federal, state and local government web resources and services.